sensor_id;sensor_type;location;lat;lon;timestamp;P1;durP1;ratioP1;P2;durP2;ratioP2
9958;SDS011;5019;48.012;7.812;2023-02-12T00:01:44;31.85;;;19.08;;
9958;SDS011;5019;48.012;7.812;2023-02-12T00:04:11;35.17;;;18.52;;
9958;SDS011;5019;48.012;7.812;2023-02-12T00:06:37;35.22;;;18.48;;
9958;SDS011;5019;48.012;7.812;2023-02-12T00:09:04;37.13;;;19.70;;
9958;SDS011;5019;48.012;7.812;2023-02-12T00:11:30;34.20;;;18.75;;
9958;SDS011;5019;48.012;7.812;2023-02-12T00:13:56;32.28;;;20.00;;
9958;SDS011;5019;48.012;7.812;2023-02-12T00:16:23;34.38;;;20.48;;
9958;SDS011;5019;48.012;7.812;2023-02-12T00:18:50;40.63;;;24.30;;
9958;SDS011;5019;48.012;7.812;2023-02-12T00:21:16;39.80;;;22.17;;
9958;SDS011;5019;48.012;7.812;2023-02-12T00:23:43;37.55;;;21.33;;
9958;SDS011;5019;48.012;7.812;2023-02-12T00:26:10;36.80;;;21.13;;
9958;SDS011;5019;48.012;7.812;2023-02-12T00:28:36;43.28;;;21.75;;
9958;SDS011;5019;48.012;7.812;2023-02-12T00:31:11;37.70;;;20.10;;
9958;SDS011;5019;48.012;7.812;2023-02-12T00:33:37;39.45;;;21.90;;
9958;SDS011;5019;48.012;7.812;2023-02-12T00:36:04;34.27;;;19.87;;
9958;SDS011;5019;48.012;7.812;2023-02-12T00:38:30;35.92;;;20.20;;
9958;SDS011;5019;48.012;7.812;2023-02-12T00:40:56;34.63;;;18.58;;
9958;SDS011;5019;48.012;7.812;2023-02-12T00:43:22;33.60;;;17.15;;
9958;SDS011;5019;48.012;7.812;2023-02-12T00:45:48;27.55;;;16.48;;
9958;SDS011;5019;48.012;7.812;2023-02-12T00:48:14;30.90;;;16.88;;
9958;SDS011;5019;48.012;7.812;2023-02-12T00:50:42;28.50;;;18.00;;
9958;SDS011;5019;48.012;7.812;2023-02-12T00:53:08;30.05;;;16.98;;
9958;SDS011;5019;48.012;7.812;2023-02-12T00:55:34;32.17;;;18.13;;
9958;SDS011;5019;48.012;7.812;2023-02-12T00:58:00;28.35;;;16.25;;
9958;SDS011;5019;48.012;7.812;2023-02-12T01:00:26;31.00;;;16.23;;
9958;SDS011;5019;48.012;7.812;2023-02-12T01:02:52;33.30;;;15.50;;
9958;SDS011;5019;48.012;7.812;2023-02-12T01:05:18;26.08;;;15.43;;
9958;SDS011;5019;48.012;7.812;2023-02-12T01:07:48;27.10;;;15.93;;
9958;SDS011;5019;48.012;7.812;2023-02-12T01:10:14;26.52;;;14.65;;
9958;SDS011;5019;48.012;7.812;2023-02-12T01:12:40;28.92;;;15.60;;
9958;SDS011;5019;48.012;7.812;2023-02-12T01:15:06;24.98;;;14.13;;
9958;SDS011;5019;48.012;7.812;2023-02-12T01:17:34;23.98;;;13.50;;
9958;SDS011;5019;48.012;7.812;2023-02-12T01:20:00;22.58;;;13.88;;
9958;SDS011;5019;48.012;7.812;2023-02-12T01:22:26;20.33;;;12.40;;
9958;SDS011;5019;48.012;7.812;2023-02-12T01:24:52;21.17;;;12.83;;
9958;SDS011;5019;48.012;7.812;2023-02-12T01:27:18;19.52;;;11.63;;
9958;SDS011;5019;48.012;7.812;2023-02-12T01:29:44;21.58;;;11.40;;
9958;SDS011;5019;48.012;7.812;2023-02-12T01:32:10;17.08;;;10.70;;
9958;SDS011;5019;48.012;7.812;2023-02-12T01:34:36;21.43;;;11.70;;
9958;SDS011;5019;48.012;7.812;2023-02-12T01:37:02;15.95;;;9.82;;
9958;SDS011;5019;48.012;7.812;2023-02-12T01:39:28;17.13;;;9.57;;
9958;SDS011;5019;48.012;7.812;2023-02-12T01:41:54;15.63;;;10.40;;
9958;SDS011;5019;48.012;7.812;2023-02-12T01:44:21;18.73;;;11.65;;
9958;SDS011;5019;48.012;7.812;2023-02-12T01:46:49;21.23;;;11.10;;
9958;SDS011;5019;48.012;7.812;2023-02-12T01:49:19;20.42;;;11.40;;
9958;SDS011;5019;48.012;7.812;2023-02-12T01:51:46;20.13;;;12.13;;
9958;SDS011;5019;48.012;7.812;2023-02-12T01:54:14;23.33;;;13.65;;
9958;SDS011;5019;48.012;7.812;2023-02-12T01:56:42;25.73;;;13.80;;
9958;SDS011;5019;48.012;7.812;2023-02-12T01:59:08;24.30;;;13.65;;
9958;SDS011;5019;48.012;7.812;2023-02-12T02:01:34;24.83;;;13.52;;
9958;SDS011;5019;48.012;7.812;2023-02-12T02:04:02;24.48;;;13.30;;
9958;SDS011;5019;48.012;7.812;2023-02-12T02:06:31;24.17;;;13.00;;
9958;SDS011;5019;48.012;7.812;2023-02-12T02:08:58;22.42;;;13.13;;
9958;SDS011;5019;48.012;7.812;2023-02-12T02:11:24;17.20;;;12.32;;
9958;SDS011;5019;48.012;7.812;2023-02-12T02:14:08;25.50;;;14.10;;
9958;SDS011;5019;48.012;7.812;2023-02-12T02:27:48;21.88;;;13.48;;
9958;SDS011;5019;48.012;7.812;2023-02-12T02:32:54;21.67;;;13.45;;
9958;SDS011;5019;48.012;7.812;2023-02-12T02:38:30;23.23;;;12.95;;
9958;SDS011;5019;48.012;7.812;2023-02-12T02:40:42;23.20;;;13.57;;
9958;SDS011;5019;48.012;7.812;2023-02-12T02:43:32;26.58;;;13.65;;
9958;SDS011;5019;48.012;7.812;2023-02-12T02:46:10;19.55;;;12.52;;
9958;SDS011;5019;48.012;7.812;2023-02-12T02:48:42;21.08;;;12.68;;
9958;SDS011;5019;48.012;7.812;2023-02-12T02:51:11;24.50;;;13.57;;
9958;SDS011;5019;48.012;7.812;2023-02-12T02:53:40;22.05;;;12.70;;
9958;SDS011;5019;48.012;7.812;2023-02-12T02:56:07;23.27;;;12.00;;
9958;SDS011;5019;48.012;7.812;2023-02-12T02:58:38;25.20;;;13.27;;
9958;SDS011;5019;48.012;7.812;2023-02-12T03:01:11;22.58;;;12.23;;
9958;SDS011;5019;48.012;7.812;2023-02-12T03:03:42;20.60;;;12.88;;
9958;SDS011;5019;48.012;7.812;2023-02-12T03:06:09;22.10;;;12.02;;
9958;SDS011;5019;48.012;7.812;2023-02-12T03:08:38;25.75;;;12.13;;
9958;SDS011;5019;48.012;7.812;2023-02-12T03:11:13;25.85;;;13.40;;
9958;SDS011;5019;48.012;7.812;2023-02-12T03:13:56;21.23;;;12.23;;
9958;SDS011;5019;48.012;7.812;2023-02-12T03:16:28;20.40;;;13.17;;
9958;SDS011;5019;48.012;7.812;2023-02-12T03:18:58;22.88;;;12.10;;
9958;SDS011;5019;48.012;7.812;2023-02-12T03:21:30;18.75;;;12.02;;
9958;SDS011;5019;48.012;7.812;2023-02-12T03:27:02;22.13;;;11.60;;
9958;SDS011;5019;48.012;7.812;2023-02-12T03:29:30;22.35;;;11.52;;
9958;SDS011;5019;48.012;7.812;2023-02-12T03:34:24;18.70;;;11.18;;
9958;SDS011;5019;48.012;7.812;2023-02-12T03:36:59;17.02;;;11.18;;
9958;SDS011;5019;48.012;7.812;2023-02-12T03:42:06;22.35;;;11.93;;
9958;SDS011;5019;48.012;7.812;2023-02-12T03:44:37;18.00;;;11.70;;
9958;SDS011;5019;48.012;7.812;2023-02-12T03:47:18;20.20;;;10.00;;
9958;SDS011;5019;48.012;7.812;2023-02-12T03:49:57;18.87;;;11.67;;
9958;SDS011;5019;48.012;7.812;2023-02-12T03:52:25;18.20;;;11.00;;
9958;SDS011;5019;48.012;7.812;2023-02-12T03:54:51;14.82;;;9.80;;
9958;SDS011;5019;48.012;7.812;2023-02-12T03:57:21;16.27;;;9.40;;
9958;SDS011;5019;48.012;7.812;2023-02-12T03:59:49;19.40;;;10.93;;
9958;SDS011;5019;48.012;7.812;2023-02-12T04:02:15;19.00;;;10.73;;
9958;SDS011;5019;48.012;7.812;2023-02-12T04:04:43;20.70;;;10.90;;
9958;SDS011;5019;48.012;7.812;2023-02-12T04:07:10;22.63;;;12.02;;
9958;SDS011;5019;48.012;7.812;2023-02-12T04:09:36;19.98;;;11.30;;
9958;SDS011;5019;48.012;7.812;2023-02-12T04:22:33;16.02;;;9.52;;
9958;SDS011;5019;48.012;7.812;2023-02-12T04:25:16;18.00;;;10.40;;
9958;SDS011;5019;48.012;7.812;2023-02-12T04:27:56;18.85;;;11.13;;
9958;SDS011;5019;48.012;7.812;2023-02-12T04:30:27;15.85;;;10.10;;
9958;SDS011;5019;48.012;7.812;2023-02-12T04:32:55;18.67;;;11.80;;
9958;SDS011;5019;48.012;7.812;2023-02-12T04:35:30;16.95;;;9.77;;
9958;SDS011;5019;48.012;7.812;2023-02-12T04:38:02;17.90;;;9.87;;
9958;SDS011;5019;48.012;7.812;2023-02-12T04:40:30;18.80;;;10.65;;
9958;SDS011;5019;48.012;7.812;2023-02-12T04:42:56;19.80;;;10.03;;
9958;SDS011;5019;48.012;7.812;2023-02-12T04:45:29;17.27;;;10.30;;
9958;SDS011;5019;48.012;7.812;2023-02-12T04:47:56;17.90;;;9.02;;
9958;SDS011;5019;48.012;7.812;2023-02-12T04:50:22;15.43;;;9.10;;
9958;SDS011;5019;48.012;7.812;2023-02-12T04:52:48;16.67;;;10.30;;
9958;SDS011;5019;48.012;7.812;2023-02-12T04:55:14;17.88;;;10.30;;
9958;SDS011;5019;48.012;7.812;2023-02-12T04:57:40;19.53;;;9.77;;
9958;SDS011;5019;48.012;7.812;2023-02-12T05:00:07;15.30;;;9.73;;
9958;SDS011;5019;48.012;7.812;2023-02-12T05:02:34;17.65;;;9.50;;
9958;SDS011;5019;48.012;7.812;2023-02-12T05:05:00;13.98;;;8.48;;
9958;SDS011;5019;48.012;7.812;2023-02-12T05:07:26;16.70;;;9.23;;
9958;SDS011;5019;48.012;7.812;2023-02-12T05:09:52;16.48;;;9.25;;
9958;SDS011;5019;48.012;7.812;2023-02-12T05:12:18;15.60;;;8.20;;
9958;SDS011;5019;48.012;7.812;2023-02-12T05:14:44;18.73;;;9.15;;
9958;SDS011;5019;48.012;7.812;2023-02-12T05:17:09;16.10;;;10.10;;
9958;SDS011;5019;48.012;7.812;2023-02-12T05:19:35;17.05;;;9.93;;
9958;SDS011;5019;48.012;7.812;2023-02-12T05:22:02;15.50;;;8.80;;
9958;SDS011;5019;48.012;7.812;2023-02-12T05:24:28;15.68;;;8.98;;
9958;SDS011;5019;48.012;7.812;2023-02-12T05:26:54;17.73;;;9.52;;
9958;SDS011;5019;48.012;7.812;2023-02-12T05:29:20;19.83;;;9.80;;
9958;SDS011;5019;48.012;7.812;2023-02-12T05:31:46;18.25;;;10.00;;
9958;SDS011;5019;48.012;7.812;2023-02-12T05:34:12;15.57;;;9.02;;
9958;SDS011;5019;48.012;7.812;2023-02-12T05:36:38;20.65;;;9.30;;
9958;SDS011;5019;48.012;7.812;2023-02-12T05:39:04;19.98;;;9.90;;
9958;SDS011;5019;48.012;7.812;2023-02-12T05:41:31;15.43;;;9.20;;
9958;SDS011;5019;48.012;7.812;2023-02-12T05:43:59;16.17;;;9.37;;
9958;SDS011;5019;48.012;7.812;2023-02-12T05:46:26;18.50;;;9.30;;
9958;SDS011;5019;48.012;7.812;2023-02-12T05:48:52;14.05;;;9.07;;
9958;SDS011;5019;48.012;7.812;2023-02-12T05:51:19;15.53;;;9.20;;
9958;SDS011;5019;48.012;7.812;2023-02-12T05:53:46;14.95;;;8.45;;
9958;SDS011;5019;48.012;7.812;2023-02-12T05:58:43;13.73;;;8.95;;
9958;SDS011;5019;48.012;7.812;2023-02-12T06:01:17;12.60;;;8.82;;
9958;SDS011;5019;48.012;7.812;2023-02-12T06:03:43;17.10;;;9.55;;
9958;SDS011;5019;48.012;7.812;2023-02-12T06:06:09;14.50;;;7.68;;
9958;SDS011;5019;48.012;7.812;2023-02-12T06:08:36;15.10;;;8.73;;
9958;SDS011;5019;48.012;7.812;2023-02-12T06:11:03;15.30;;;8.25;;
9958;SDS011;5019;48.012;7.812;2023-02-12T06:13:29;15.90;;;7.90;;
9958;SDS011;5019;48.012;7.812;2023-02-12T06:15:56;13.77;;;8.05;;
9958;SDS011;5019;48.012;7.812;2023-02-12T06:18:22;17.40;;;9.10;;
9958;SDS011;5019;48.012;7.812;2023-02-12T06:20:48;19.40;;;9.15;;
9958;SDS011;5019;48.012;7.812;2023-02-12T06:23:14;16.40;;;7.38;;
9958;SDS011;5019;48.012;7.812;2023-02-12T06:25:40;11.43;;;7.63;;
9958;SDS011;5019;48.012;7.812;2023-02-12T06:28:06;14.20;;;8.33;;
9958;SDS011;5019;48.012;7.812;2023-02-12T06:30:35;13.57;;;7.95;;
9958;SDS011;5019;48.012;7.812;2023-02-12T06:33:01;18.50;;;8.63;;
9958;SDS011;5019;48.012;7.812;2023-02-12T06:35:27;16.55;;;8.68;;
9958;SDS011;5019;48.012;7.812;2023-02-12T06:37:53;17.10;;;9.27;;
9958;SDS011;5019;48.012;7.812;2023-02-12T06:40:19;14.05;;;8.60;;
9958;SDS011;5019;48.012;7.812;2023-02-12T06:42:45;13.52;;;8.32;;
9958;SDS011;5019;48.012;7.812;2023-02-12T06:45:11;15.80;;;9.17;;
9958;SDS011;5019;48.012;7.812;2023-02-12T06:47:37;15.27;;;7.80;;
9958;SDS011;5019;48.012;7.812;2023-02-12T06:50:03;16.85;;;9.60;;
9958;SDS011;5019;48.012;7.812;2023-02-12T06:52:29;13.63;;;8.23;;
9958;SDS011;5019;48.012;7.812;2023-02-12T06:54:55;15.68;;;9.60;;
9958;SDS011;5019;48.012;7.812;2023-02-12T06:57:21;20.70;;;9.88;;
9958;SDS011;5019;48.012;7.812;2023-02-12T06:59:48;17.02;;;9.55;;
9958;SDS011;5019;48.012;7.812;2023-02-12T07:02:13;13.50;;;9.10;;
9958;SDS011;5019;48.012;7.812;2023-02-12T07:04:41;17.05;;;8.45;;
9958;SDS011;5019;48.012;7.812;2023-02-12T07:07:07;15.15;;;8.65;;
9958;SDS011;5019;48.012;7.812;2023-02-12T07:09:33;14.00;;;8.73;;
9958;SDS011;5019;48.012;7.812;2023-02-12T07:11:59;13.93;;;8.98;;
9958;SDS011;5019;48.012;7.812;2023-02-12T07:14:26;14.83;;;8.80;;
9958;SDS011;5019;48.012;7.812;2023-02-12T07:16:52;15.02;;;9.65;;
9958;SDS011;5019;48.012;7.812;2023-02-12T07:19:19;15.35;;;9.57;;
9958;SDS011;5019;48.012;7.812;2023-02-12T07:21:45;16.38;;;8.52;;
9958;SDS011;5019;48.012;7.812;2023-02-12T07:24:11;14.23;;;7.88;;
9958;SDS011;5019;48.012;7.812;2023-02-12T07:26:37;15.47;;;8.40;;
9958;SDS011;5019;48.012;7.812;2023-02-12T07:29:03;11.68;;;7.50;;
9958;SDS011;5019;48.012;7.812;2023-02-12T07:31:29;11.75;;;8.60;;
9958;SDS011;5019;48.012;7.812;2023-02-12T07:33:56;13.88;;;7.95;;
9958;SDS011;5019;48.012;7.812;2023-02-12T07:36:23;13.75;;;7.90;;
9958;SDS011;5019;48.012;7.812;2023-02-12T07:38:49;12.45;;;6.95;;
9958;SDS011;5019;48.012;7.812;2023-02-12T07:41:16;16.85;;;7.50;;
9958;SDS011;5019;48.012;7.812;2023-02-12T07:43:43;10.88;;;6.90;;
9958;SDS011;5019;48.012;7.812;2023-02-12T07:46:10;18.83;;;10.60;;
9958;SDS011;5019;48.012;7.812;2023-02-12T07:48:37;12.83;;;7.83;;
9958;SDS011;5019;48.012;7.812;2023-02-12T07:51:06;10.68;;;6.50;;
9958;SDS011;5019;48.012;7.812;2023-02-12T07:53:33;10.20;;;6.32;;
9958;SDS011;5019;48.012;7.812;2023-02-12T07:56:09;9.07;;;6.38;;
9958;SDS011;5019;48.012;7.812;2023-02-12T07:58:35;9.13;;;5.70;;
9958;SDS011;5019;48.012;7.812;2023-02-12T08:01:11;9.88;;;5.47;;
9958;SDS011;5019;48.012;7.812;2023-02-12T08:03:38;9.68;;;6.53;;
9958;SDS011;5019;48.012;7.812;2023-02-12T08:06:08;10.53;;;5.87;;
9958;SDS011;5019;48.012;7.812;2023-02-12T08:08:34;9.70;;;5.80;;
9958;SDS011;5019;48.012;7.812;2023-02-12T08:11:02;13.40;;;6.60;;
9958;SDS011;5019;48.012;7.812;2023-02-12T08:13:28;9.77;;;6.22;;
9958;SDS011;5019;48.012;7.812;2023-02-12T08:16:04;10.73;;;7.00;;
9958;SDS011;5019;48.012;7.812;2023-02-12T08:18:31;12.88;;;8.13;;
9958;SDS011;5019;48.012;7.812;2023-02-12T08:21:01;13.85;;;7.63;;
9958;SDS011;5019;48.012;7.812;2023-02-12T08:23:27;15.25;;;8.07;;
9958;SDS011;5019;48.012;7.812;2023-02-12T08:25:53;14.95;;;8.95;;
9958;SDS011;5019;48.012;7.812;2023-02-12T08:28:19;18.93;;;9.43;;
9958;SDS011;5019;48.012;7.812;2023-02-12T08:30:47;19.10;;;10.07;;
9958;SDS011;5019;48.012;7.812;2023-02-12T08:33:13;17.23;;;9.20;;
9958;SDS011;5019;48.012;7.812;2023-02-12T08:35:39;18.40;;;10.30;;
9958;SDS011;5019;48.012;7.812;2023-02-12T08:38:05;21.35;;;11.00;;
9958;SDS011;5019;48.012;7.812;2023-02-12T08:40:31;20.38;;;10.90;;
9958;SDS011;5019;48.012;7.812;2023-02-12T08:42:57;19.60;;;11.23;;
9958;SDS011;5019;48.012;7.812;2023-02-12T08:45:23;21.05;;;12.02;;
9958;SDS011;5019;48.012;7.812;2023-02-12T08:47:49;20.10;;;11.60;;
9958;SDS011;5019;48.012;7.812;2023-02-12T08:50:15;19.20;;;11.60;;
9958;SDS011;5019;48.012;7.812;2023-02-12T08:52:41;18.17;;;11.02;;
9958;SDS011;5019;48.012;7.812;2023-02-12T08:55:07;19.50;;;10.93;;
9958;SDS011;5019;48.012;7.812;2023-02-12T08:57:33;20.33;;;12.10;;
9958;SDS011;5019;48.012;7.812;2023-02-12T08:59:59;19.73;;;10.95;;
9958;SDS011;5019;48.012;7.812;2023-02-12T09:02:25;20.35;;;12.40;;
9958;SDS011;5019;48.012;7.812;2023-02-12T09:04:51;19.73;;;11.82;;
9958;SDS011;5019;48.012;7.812;2023-02-12T09:07:17;22.00;;;13.40;;
9958;SDS011;5019;48.012;7.812;2023-02-12T09:09:43;21.85;;;12.77;;
9958;SDS011;5019;48.012;7.812;2023-02-12T09:12:09;22.00;;;15.07;;
9958;SDS011;5019;48.012;7.812;2023-02-12T09:14:35;20.20;;;12.23;;
9958;SDS011;5019;48.012;7.812;2023-02-12T09:17:01;22.00;;;13.52;;
9958;SDS011;5019;48.012;7.812;2023-02-12T09:19:27;22.75;;;14.13;;
9958;SDS011;5019;48.012;7.812;2023-02-12T09:21:54;22.17;;;14.53;;
9958;SDS011;5019;48.012;7.812;2023-02-12T09:24:20;25.13;;;14.13;;
9958;SDS011;5019;48.012;7.812;2023-02-12T09:26:46;26.07;;;15.07;;
9958;SDS011;5019;48.012;7.812;2023-02-12T09:29:12;23.67;;;13.93;;
9958;SDS011;5019;48.012;7.812;2023-02-12T09:31:38;26.00;;;14.38;;
9958;SDS011;5019;48.012;7.812;2023-02-12T09:34:05;22.60;;;13.00;;
9958;SDS011;5019;48.012;7.812;2023-02-12T09:36:31;23.02;;;13.48;;
9958;SDS011;5019;48.012;7.812;2023-02-12T09:38:57;24.00;;;12.85;;
9958;SDS011;5019;48.012;7.812;2023-02-12T09:44:16;21.95;;;13.70;;
9958;SDS011;5019;48.012;7.812;2023-02-12T09:51:40;22.60;;;11.43;;
9958;SDS011;5019;48.012;7.812;2023-02-12T09:54:14;20.00;;;12.33;;
9958;SDS011;5019;48.012;7.812;2023-02-12T09:56:41;15.43;;;9.20;;
9958;SDS011;5019;48.012;7.812;2023-02-12T09:59:07;15.00;;;8.70;;
9958;SDS011;5019;48.012;7.812;2023-02-12T10:01:34;22.53;;;10.37;;
9958;SDS011;5019;48.012;7.812;2023-02-12T10:04:00;17.00;;;10.37;;
9958;SDS011;5019;48.012;7.812;2023-02-12T10:06:27;16.20;;;10.17;;
9958;SDS011;5019;48.012;7.812;2023-02-12T10:14:29;17.00;;;9.03;;
9958;SDS011;5019;48.012;7.812;2023-02-12T10:22:12;17.77;;;8.33;;
9958;SDS011;5019;48.012;7.812;2023-02-12T10:27:10;33.23;;;10.97;;
9958;SDS011;5019;48.012;7.812;2023-02-12T10:29:38;12.40;;;8.60;;
9958;SDS011;5019;48.012;7.812;2023-02-12T10:32:12;15.93;;;9.93;;
9958;SDS011;5019;48.012;7.812;2023-02-12T10:34:39;19.53;;;9.80;;
9958;SDS011;5019;48.012;7.812;2023-02-12T10:37:11;17.00;;;9.20;;
9958;SDS011;5019;48.012;7.812;2023-02-12T10:39:45;18.30;;;11.20;;
9958;SDS011;5019;48.012;7.812;2023-02-12T10:44:39;14.50;;;10.13;;
9958;SDS011;5019;48.012;7.812;2023-02-12T10:47:05;20.20;;;8.50;;
9958;SDS011;5019;48.012;7.812;2023-02-12T10:49:32;15.67;;;8.57;;
9958;SDS011;5019;48.012;7.812;2023-02-12T10:54:36;15.50;;;9.00;;
9958;SDS011;5019;48.012;7.812;2023-02-12T10:57:07;16.13;;;9.30;;
9958;SDS011;5019;48.012;7.812;2023-02-12T10:59:34;19.10;;;9.40;;
9958;SDS011;5019;48.012;7.812;2023-02-12T11:02:01;15.77;;;8.87;;
9958;SDS011;5019;48.012;7.812;2023-02-12T11:04:28;16.20;;;9.60;;
9958;SDS011;5019;48.012;7.812;2023-02-12T11:06:56;21.83;;;10.60;;
9958;SDS011;5019;48.012;7.812;2023-02-12T11:09:26;9.53;;;7.70;;
9958;SDS011;5019;48.012;7.812;2023-02-12T11:11:53;17.70;;;9.60;;
9958;SDS011;5019;48.012;7.812;2023-02-12T11:14:19;18.53;;;9.83;;
9958;SDS011;5019;48.012;7.812;2023-02-12T11:16:50;11.23;;;7.90;;
9958;SDS011;5019;48.012;7.812;2023-02-12T11:19:21;16.93;;;9.87;;
9958;SDS011;5019;48.012;7.812;2023-02-12T11:21:48;12.80;;;8.73;;
9958;SDS011;5019;48.012;7.812;2023-02-12T11:24:21;14.33;;;7.87;;
9958;SDS011;5019;48.012;7.812;2023-02-12T11:27:27;10.50;;;7.03;;
9958;SDS011;5019;48.012;7.812;2023-02-12T11:29:45;13.87;;;6.63;;
9958;SDS011;5019;48.012;7.812;2023-02-12T11:32:18;16.37;;;8.90;;
9958;SDS011;5019;48.012;7.812;2023-02-12T11:34:50;11.03;;;6.20;;
9958;SDS011;5019;48.012;7.812;2023-02-12T11:37:28;11.53;;;7.70;;
9958;SDS011;5019;48.012;7.812;2023-02-12T11:39:57;15.70;;;8.37;;
9958;SDS011;5019;48.012;7.812;2023-02-12T11:42:23;17.03;;;8.07;;
9958;SDS011;5019;48.012;7.812;2023-02-12T11:44:54;10.50;;;8.53;;
9958;SDS011;5019;48.012;7.812;2023-02-12T11:47:22;16.53;;;8.00;;
9958;SDS011;5019;48.012;7.812;2023-02-12T11:52:26;11.43;;;7.20;;
9958;SDS011;5019;48.012;7.812;2023-02-12T11:54:54;8.03;;;6.07;;
9958;SDS011;5019;48.012;7.812;2023-02-12T11:57:37;15.57;;;8.13;;
9958;SDS011;5019;48.012;7.812;2023-02-12T12:00:20;17.87;;;7.77;;
9958;SDS011;5019;48.012;7.812;2023-02-12T12:02:48;13.37;;;9.00;;
9958;SDS011;5019;48.012;7.812;2023-02-12T12:05:15;13.97;;;8.87;;
9958;SDS011;5019;48.012;7.812;2023-02-12T12:07:49;18.73;;;11.00;;
9958;SDS011;5019;48.012;7.812;2023-02-12T12:10:20;11.80;;;7.97;;
9958;SDS011;5019;48.012;7.812;2023-02-12T12:12:52;14.37;;;9.07;;
9958;SDS011;5019;48.012;7.812;2023-02-12T12:15:21;15.50;;;9.00;;
9958;SDS011;5019;48.012;7.812;2023-02-12T12:20:55;12.07;;;6.60;;
9958;SDS011;5019;48.012;7.812;2023-02-12T12:23:36;11.13;;;6.77;;
9958;SDS011;5019;48.012;7.812;2023-02-12T12:26:10;10.57;;;6.37;;
9958;SDS011;5019;48.012;7.812;2023-02-12T12:28:43;10.70;;;5.70;;
9958;SDS011;5019;48.012;7.812;2023-02-12T12:31:17;9.70;;;5.33;;
9958;SDS011;5019;48.012;7.812;2023-02-12T12:39:15;7.60;;;5.40;;
9958;SDS011;5019;48.012;7.812;2023-02-12T12:49:33;8.43;;;4.20;;
9958;SDS011;5019;48.012;7.812;2023-02-12T12:55:22;6.43;;;5.23;;
9958;SDS011;5019;48.012;7.812;2023-02-12T13:18:37;8.17;;;5.00;;
9958;SDS011;5019;48.012;7.812;2023-02-12T13:23:46;8.73;;;5.43;;
9958;SDS011;5019;48.012;7.812;2023-02-12T13:26:15;10.97;;;6.33;;
9958;SDS011;5019;48.012;7.812;2023-02-12T13:28:45;10.43;;;6.37;;
9958;SDS011;5019;48.012;7.812;2023-02-12T13:31:13;6.87;;;6.00;;
9958;SDS011;5019;48.012;7.812;2023-02-12T13:33:42;10.43;;;5.60;;
9958;SDS011;5019;48.012;7.812;2023-02-12T13:36:10;7.10;;;5.83;;
9958;SDS011;5019;48.012;7.812;2023-02-12T13:38:38;13.03;;;6.77;;
9958;SDS011;5019;48.012;7.812;2023-02-12T13:41:08;12.90;;;7.93;;
9958;SDS011;5019;48.012;7.812;2023-02-12T13:43:46;10.53;;;5.80;;
9958;SDS011;5019;48.012;7.812;2023-02-12T13:46:50;8.40;;;6.00;;
9958;SDS011;5019;48.012;7.812;2023-02-12T13:56:28;9.83;;;7.17;;
9958;SDS011;5019;48.012;7.812;2023-02-12T13:58:58;10.17;;;7.30;;
9958;SDS011;5019;48.012;7.812;2023-02-12T14:09:25;12.90;;;6.77;;
9958;SDS011;5019;48.012;7.812;2023-02-12T14:11:54;11.57;;;6.50;;
9958;SDS011;5019;48.012;7.812;2023-02-12T14:14:36;9.73;;;7.17;;
9958;SDS011;5019;48.012;7.812;2023-02-12T14:19:53;8.93;;;7.60;;
9958;SDS011;5019;48.012;7.812;2023-02-12T14:24:52;12.43;;;8.83;;
9958;SDS011;5019;48.012;7.812;2023-02-12T14:30:00;12.57;;;8.07;;
9958;SDS011;5019;48.012;7.812;2023-02-12T14:38:02;15.20;;;7.77;;
9958;SDS011;5019;48.012;7.812;2023-02-12T14:45:50;12.00;;;7.33;;
9958;SDS011;5019;48.012;7.812;2023-02-12T14:51:01;14.50;;;7.00;;
9958;SDS011;5019;48.012;7.812;2023-02-12T14:53:30;13.23;;;8.07;;
9958;SDS011;5019;48.012;7.812;2023-02-12T14:55:59;11.30;;;7.70;;
9958;SDS011;5019;48.012;7.812;2023-02-12T14:58:25;11.87;;;7.00;;
9958;SDS011;5019;48.012;7.812;2023-02-12T15:00:55;12.00;;;7.57;;
9958;SDS011;5019;48.012;7.812;2023-02-12T15:03:25;8.20;;;6.93;;
9958;SDS011;5019;48.012;7.812;2023-02-12T15:16:21;12.63;;;7.23;;
9958;SDS011;5019;48.012;7.812;2023-02-12T15:21:18;13.53;;;7.40;;
9958;SDS011;5019;48.012;7.812;2023-02-12T15:23:46;16.10;;;7.57;;
9958;SDS011;5019;48.012;7.812;2023-02-12T15:26:19;11.60;;;7.43;;
9958;SDS011;5019;48.012;7.812;2023-02-12T15:28:48;10.27;;;6.27;;
9958;SDS011;5019;48.012;7.812;2023-02-12T15:31:16;10.37;;;5.90;;
9958;SDS011;5019;48.012;7.812;2023-02-12T15:33:46;13.53;;;6.93;;
9958;SDS011;5019;48.012;7.812;2023-02-12T15:36:15;13.93;;;6.33;;
9958;SDS011;5019;48.012;7.812;2023-02-12T15:38:41;12.70;;;7.00;;
9958;SDS011;5019;48.012;7.812;2023-02-12T15:41:22;7.27;;;5.67;;
9958;SDS011;5019;48.012;7.812;2023-02-12T15:43:48;6.60;;;5.73;;
9958;SDS011;5019;48.012;7.812;2023-02-12T15:46:15;8.10;;;5.13;;
9958;SDS011;5019;48.012;7.812;2023-02-12T15:48:41;11.23;;;6.60;;
9958;SDS011;5019;48.012;7.812;2023-02-12T15:53:39;9.30;;;5.70;;
9958;SDS011;5019;48.012;7.812;2023-02-12T15:56:09;6.67;;;4.37;;
9958;SDS011;5019;48.012;7.812;2023-02-12T15:58:40;10.80;;;6.60;;
9958;SDS011;5019;48.012;7.812;2023-02-12T16:01:07;12.43;;;6.50;;
9958;SDS011;5019;48.012;7.812;2023-02-12T16:03:34;11.10;;;6.77;;
9958;SDS011;5019;48.012;7.812;2023-02-12T16:06:07;9.50;;;7.10;;
9958;SDS011;5019;48.012;7.812;2023-02-12T16:08:35;9.57;;;7.07;;
9958;SDS011;5019;48.012;7.812;2023-02-12T16:11:02;10.93;;;7.78;;
9958;SDS011;5019;48.012;7.812;2023-02-12T16:13:38;11.23;;;7.43;;
9958;SDS011;5019;48.012;7.812;2023-02-12T16:16:06;11.70;;;6.50;;
9958;SDS011;5019;48.012;7.812;2023-02-12T16:18:32;11.63;;;7.80;;
9958;SDS011;5019;48.012;7.812;2023-02-12T16:21:14;16.50;;;8.00;;
9958;SDS011;5019;48.012;7.812;2023-02-12T16:23:42;12.90;;;8.03;;
9958;SDS011;5019;48.012;7.812;2023-02-12T16:26:09;13.00;;;7.90;;
9958;SDS011;5019;48.012;7.812;2023-02-12T16:28:40;10.50;;;6.37;;
9958;SDS011;5019;48.012;7.812;2023-02-12T16:31:11;11.27;;;6.57;;
9958;SDS011;5019;48.012;7.812;2023-02-12T16:36:10;16.63;;;10.53;;
9958;SDS011;5019;48.012;7.812;2023-02-12T16:43:45;10.23;;;7.70;;
9958;SDS011;5019;48.012;7.812;2023-02-12T16:46:11;11.90;;;7.77;;
9958;SDS011;5019;48.012;7.812;2023-02-12T16:48:39;14.93;;;8.80;;
9958;SDS011;5019;48.012;7.812;2023-02-12T16:51:06;11.37;;;8.53;;
9958;SDS011;5019;48.012;7.812;2023-02-12T16:53:44;12.73;;;9.00;;
9958;SDS011;5019;48.012;7.812;2023-02-12T16:56:17;12.83;;;8.10;;
9958;SDS011;5019;48.012;7.812;2023-02-12T16:58:45;17.23;;;9.77;;
9958;SDS011;5019;48.012;7.812;2023-02-12T17:01:16;19.07;;;10.83;;
9958;SDS011;5019;48.012;7.812;2023-02-12T17:03:43;14.60;;;9.77;;
9958;SDS011;5019;48.012;7.812;2023-02-12T17:06:11;17.30;;;10.60;;
9958;SDS011;5019;48.012;7.812;2023-02-12T17:08:37;13.93;;;8.40;;
9958;SDS011;5019;48.012;7.812;2023-02-12T17:11:03;17.70;;;9.93;;
9958;SDS011;5019;48.012;7.812;2023-02-12T17:13:29;18.03;;;8.83;;
9958;SDS011;5019;48.012;7.812;2023-02-12T17:15:56;14.30;;;8.37;;
9958;SDS011;5019;48.012;7.812;2023-02-12T17:18:23;13.33;;;8.73;;
9958;SDS011;5019;48.012;7.812;2023-02-12T17:20:56;12.10;;;8.23;;
9958;SDS011;5019;48.012;7.812;2023-02-12T17:23:22;12.47;;;8.17;;
9958;SDS011;5019;48.012;7.812;2023-02-12T17:25:48;11.03;;;8.50;;
9958;SDS011;5019;48.012;7.812;2023-02-12T17:28:14;12.10;;;7.90;;
9958;SDS011;5019;48.012;7.812;2023-02-12T17:30:41;10.83;;;6.43;;
9958;SDS011;5019;48.012;7.812;2023-02-12T17:33:07;11.33;;;7.40;;
9958;SDS011;5019;48.012;7.812;2023-02-12T17:35:33;17.63;;;8.43;;
9958;SDS011;5019;48.012;7.812;2023-02-12T17:37:59;10.57;;;6.80;;
9958;SDS011;5019;48.012;7.812;2023-02-12T17:40:25;12.33;;;7.20;;
9958;SDS011;5019;48.012;7.812;2023-02-12T17:42:51;13.90;;;6.83;;
9958;SDS011;5019;48.012;7.812;2023-02-12T17:45:17;8.87;;;5.90;;
9958;SDS011;5019;48.012;7.812;2023-02-12T17:47:43;10.40;;;5.70;;
9958;SDS011;5019;48.012;7.812;2023-02-12T17:50:11;7.73;;;5.77;;
9958;SDS011;5019;48.012;7.812;2023-02-12T17:52:38;9.97;;;6.27;;
9958;SDS011;5019;48.012;7.812;2023-02-12T17:55:04;7.43;;;5.90;;